sensor_id;sensor_type;location;lat;lon;timestamp;P1;durP1;ratioP1;P2;durP2;ratioP2
22019;SDS011;51298;53.362;-1.518;2023-07-28T00:00:29;2.00;;;0.98;;
22019;SDS011;51298;53.362;-1.518;2023-07-28T00:03:13;2.65;;;1.30;;
22019;SDS011;51298;53.362;-1.518;2023-07-28T00:05:58;2.55;;;1.23;;
22019;SDS011;51298;53.362;-1.518;2023-07-28T00:08:42;2.97;;;1.20;;
22019;SDS011;51298;53.362;-1.518;2023-07-28T00:11:27;1.50;;;0.82;;
22019;SDS011;51298;53.362;-1.518;2023-07-28T00:14:11;1.83;;;1.15;;
22019;SDS011;51298;53.362;-1.518;2023-07-28T00:16:56;2.88;;;1.42;;
22019;SDS011;51298;53.362;-1.518;2023-07-28T00:19:41;5.25;;;1.55;;
22019;SDS011;51298;53.362;-1.518;2023-07-28T00:22:26;2.25;;;1.25;;
22019;SDS011;51298;53.362;-1.518;2023-07-28T00:25:10;2.28;;;1.23;;
22019;SDS011;51298;53.362;-1.518;2023-07-28T00:27:55;1.77;;;1.02;;
22019;SDS011;51298;53.362;-1.518;2023-07-28T00:30:39;1.70;;;1.00;;
22019;SDS011;51298;53.362;-1.518;2023-07-28T00:33:24;2.13;;;1.17;;
22019;SDS011;51298;53.362;-1.518;2023-07-28T00:36:08;2.10;;;1.10;;
22019;SDS011;51298;53.362;-1.518;2023-07-28T00:38:53;1.60;;;0.93;;
22019;SDS011;51298;53.362;-1.518;2023-07-28T00:41:38;4.45;;;1.20;;
22019;SDS011;51298;53.362;-1.518;2023-07-28T00:44:22;6.97;;;1.17;;
22019;SDS011;51298;53.362;-1.518;2023-07-28T00:47:07;2.50;;;1.17;;
22019;SDS011;51298;53.362;-1.518;2023-07-28T00:49:51;2.33;;;1.00;;
22019;SDS011;51298;53.362;-1.518;2023-07-28T00:52:36;2.47;;;1.17;;
22019;SDS011;51298;53.362;-1.518;2023-07-28T00:55:22;1.77;;;0.98;;
22019;SDS011;51298;53.362;-1.518;2023-07-28T00:58:07;1.95;;;1.00;;
22019;SDS011;51298;53.362;-1.518;2023-07-28T01:00:53;4.28;;;1.55;;
22019;SDS011;51298;53.362;-1.518;2023-07-28T01:03:37;2.72;;;1.20;;
22019;SDS011;51298;53.362;-1.518;2023-07-28T01:09:34;2.38;;;1.23;;
22019;SDS011;51298;53.362;-1.518;2023-07-28T01:12:26;3.15;;;1.30;;
22019;SDS011;51298;53.362;-1.518;2023-07-28T01:15:10;3.28;;;1.45;;
22019;SDS011;51298;53.362;-1.518;2023-07-28T01:17:55;3.53;;;1.90;;
22019;SDS011;51298;53.362;-1.518;2023-07-28T01:20:39;4.13;;;1.33;;
22019;SDS011;51298;53.362;-1.518;2023-07-28T01:23:40;2.50;;;1.27;;
22019;SDS011;51298;53.362;-1.518;2023-07-28T01:26:30;3.47;;;1.88;;
22019;SDS011;51298;53.362;-1.518;2023-07-28T01:29:21;4.35;;;1.95;;
22019;SDS011;51298;53.362;-1.518;2023-07-28T01:32:06;4.97;;;1.85;;
22019;SDS011;51298;53.362;-1.518;2023-07-28T01:34:51;3.83;;;1.80;;
22019;SDS011;51298;53.362;-1.518;2023-07-28T01:37:35;5.05;;;2.28;;
22019;SDS011;51298;53.362;-1.518;2023-07-28T01:40:23;10.73;;;1.88;;
22019;SDS011;51298;53.362;-1.518;2023-07-28T01:43:07;7.38;;;2.13;;
22019;SDS011;51298;53.362;-1.518;2023-07-28T01:45:52;3.65;;;1.80;;
22019;SDS011;51298;53.362;-1.518;2023-07-28T01:48:36;3.67;;;2.00;;
22019;SDS011;51298;53.362;-1.518;2023-07-28T01:51:21;2.85;;;1.48;;
22019;SDS011;51298;53.362;-1.518;2023-07-28T01:54:05;5.22;;;2.10;;
22019;SDS011;51298;53.362;-1.518;2023-07-28T01:56:49;4.88;;;2.00;;
22019;SDS011;51298;53.362;-1.518;2023-07-28T01:59:34;4.13;;;1.75;;
22019;SDS011;51298;53.362;-1.518;2023-07-28T02:02:19;4.90;;;1.60;;
22019;SDS011;51298;53.362;-1.518;2023-07-28T02:05:03;6.30;;;1.98;;
22019;SDS011;51298;53.362;-1.518;2023-07-28T02:07:48;4.00;;;1.83;;
22019;SDS011;51298;53.362;-1.518;2023-07-28T02:10:32;5.60;;;2.22;;
22019;SDS011;51298;53.362;-1.518;2023-07-28T02:13:16;4.20;;;2.00;;
22019;SDS011;51298;53.362;-1.518;2023-07-28T02:16:01;4.38;;;1.85;;
22019;SDS011;51298;53.362;-1.518;2023-07-28T02:18:45;4.85;;;2.20;;
22019;SDS011;51298;53.362;-1.518;2023-07-28T02:21:29;6.18;;;2.45;;
22019;SDS011;51298;53.362;-1.518;2023-07-28T02:24:14;5.40;;;2.20;;
22019;SDS011;51298;53.362;-1.518;2023-07-28T02:26:58;5.72;;;2.42;;
22019;SDS011;51298;53.362;-1.518;2023-07-28T02:29:44;6.07;;;2.13;;
22019;SDS011;51298;53.362;-1.518;2023-07-28T02:32:29;5.43;;;2.10;;
22019;SDS011;51298;53.362;-1.518;2023-07-28T02:35:14;4.85;;;1.95;;
22019;SDS011;51298;53.362;-1.518;2023-07-28T02:37:59;5.82;;;2.33;;
22019;SDS011;51298;53.362;-1.518;2023-07-28T02:40:46;4.90;;;2.40;;
22019;SDS011;51298;53.362;-1.518;2023-07-28T02:43:31;7.50;;;2.20;;
22019;SDS011;51298;53.362;-1.518;2023-07-28T02:46:15;4.70;;;2.03;;
22019;SDS011;51298;53.362;-1.518;2023-07-28T02:48:59;4.35;;;2.30;;
22019;SDS011;51298;53.362;-1.518;2023-07-28T02:51:46;4.82;;;2.00;;
22019;SDS011;51298;53.362;-1.518;2023-07-28T02:54:30;2.80;;;1.65;;
22019;SDS011;51298;53.362;-1.518;2023-07-28T02:57:15;2.75;;;1.50;;
22019;SDS011;51298;53.362;-1.518;2023-07-28T03:00:02;2.72;;;1.40;;
22019;SDS011;51298;53.362;-1.518;2023-07-28T03:02:49;2.22;;;1.27;;
22019;SDS011;51298;53.362;-1.518;2023-07-28T03:05:34;2.13;;;1.10;;
22019;SDS011;51298;53.362;-1.518;2023-07-28T03:08:38;2.97;;;1.33;;
22019;SDS011;51298;53.362;-1.518;2023-07-28T03:11:43;3.35;;;1.50;;
22019;SDS011;51298;53.362;-1.518;2023-07-28T03:14:28;3.10;;;1.60;;
22019;SDS011;51298;53.362;-1.518;2023-07-28T03:17:14;4.35;;;1.98;;
22019;SDS011;51298;53.362;-1.518;2023-07-28T03:19:59;4.15;;;2.00;;
22019;SDS011;51298;53.362;-1.518;2023-07-28T03:22:44;4.22;;;1.80;;
22019;SDS011;51298;53.362;-1.518;2023-07-28T03:25:29;5.55;;;1.83;;
22019;SDS011;51298;53.362;-1.518;2023-07-28T03:28:14;2.50;;;1.52;;
22019;SDS011;51298;53.362;-1.518;2023-07-28T03:30:59;3.08;;;1.60;;
22019;SDS011;51298;53.362;-1.518;2023-07-28T03:33:44;3.20;;;1.25;;
22019;SDS011;51298;53.362;-1.518;2023-07-28T03:36:29;4.65;;;1.77;;
22019;SDS011;51298;53.362;-1.518;2023-07-28T03:39:14;4.30;;;1.70;;
22019;SDS011;51298;53.362;-1.518;2023-07-28T03:42:02;5.47;;;1.40;;
22019;SDS011;51298;53.362;-1.518;2023-07-28T03:44:47;1.48;;;0.98;;
22019;SDS011;51298;53.362;-1.518;2023-07-28T03:47:32;2.40;;;1.30;;
22019;SDS011;51298;53.362;-1.518;2023-07-28T03:50:16;2.03;;;1.20;;
22019;SDS011;51298;53.362;-1.518;2023-07-28T03:53:02;2.50;;;1.00;;
22019;SDS011;51298;53.362;-1.518;2023-07-28T03:55:47;1.88;;;1.00;;
22019;SDS011;51298;53.362;-1.518;2023-07-28T03:58:31;3.53;;;1.30;;
22019;SDS011;51298;53.362;-1.518;2023-07-28T04:01:16;3.28;;;1.50;;
22019;SDS011;51298;53.362;-1.518;2023-07-28T04:04:01;3.20;;;1.48;;
22019;SDS011;51298;53.362;-1.518;2023-07-28T04:06:48;2.90;;;1.48;;
22019;SDS011;51298;53.362;-1.518;2023-07-28T04:09:39;4.50;;;1.77;;
22019;SDS011;51298;53.362;-1.518;2023-07-28T04:12:23;4.05;;;1.50;;
22019;SDS011;51298;53.362;-1.518;2023-07-28T04:15:08;3.97;;;1.55;;
22019;SDS011;51298;53.362;-1.518;2023-07-28T04:17:53;3.70;;;1.48;;
22019;SDS011;51298;53.362;-1.518;2023-07-28T04:20:37;2.75;;;1.33;;
22019;SDS011;51298;53.362;-1.518;2023-07-28T04:23:22;3.50;;;1.27;;
22019;SDS011;51298;53.362;-1.518;2023-07-28T04:26:09;2.88;;;1.35;;
22019;SDS011;51298;53.362;-1.518;2023-07-28T04:28:56;4.03;;;1.60;;
22019;SDS011;51298;53.362;-1.518;2023-07-28T04:31:41;2.67;;;1.48;;
22019;SDS011;51298;53.362;-1.518;2023-07-28T04:34:32;3.13;;;1.80;;
22019;SDS011;51298;53.362;-1.518;2023-07-28T04:37:37;3.17;;;1.30;;
22019;SDS011;51298;53.362;-1.518;2023-07-28T04:40:21;2.80;;;1.27;;
22019;SDS011;51298;53.362;-1.518;2023-07-28T04:43:05;3.42;;;1.23;;
22019;SDS011;51298;53.362;-1.518;2023-07-28T04:45:50;3.92;;;1.63;;
22019;SDS011;51298;53.362;-1.518;2023-07-28T04:48:37;2.72;;;1.30;;
22019;SDS011;51298;53.362;-1.518;2023-07-28T04:51:44;3.92;;;1.83;;
22019;SDS011;51298;53.362;-1.518;2023-07-28T04:54:47;2.83;;;1.50;;
22019;SDS011;51298;53.362;-1.518;2023-07-28T04:57:31;2.30;;;1.52;;
22019;SDS011;51298;53.362;-1.518;2023-07-28T05:00:15;2.92;;;1.30;;
22019;SDS011;51298;53.362;-1.518;2023-07-28T05:02:59;2.28;;;1.27;;
22019;SDS011;51298;53.362;-1.518;2023-07-28T05:05:47;3.83;;;1.50;;
22019;SDS011;51298;53.362;-1.518;2023-07-28T05:08:31;2.05;;;1.20;;
22019;SDS011;51298;53.362;-1.518;2023-07-28T05:11:16;3.20;;;1.52;;
22019;SDS011;51298;53.362;-1.518;2023-07-28T05:14:01;2.53;;;1.40;;
22019;SDS011;51298;53.362;-1.518;2023-07-28T05:16:46;3.30;;;1.60;;
22019;SDS011;51298;53.362;-1.518;2023-07-28T05:19:53;4.18;;;1.60;;
22019;SDS011;51298;53.362;-1.518;2023-07-28T05:22:58;2.40;;;1.20;;
22019;SDS011;51298;53.362;-1.518;2023-07-28T05:25:46;1.50;;;1.00;;
22019;SDS011;51298;53.362;-1.518;2023-07-28T05:28:34;1.88;;;1.05;;
22019;SDS011;51298;53.362;-1.518;2023-07-28T05:31:19;3.22;;;1.80;;
22019;SDS011;51298;53.362;-1.518;2023-07-28T05:34:07;2.85;;;1.30;;
22019;SDS011;51298;53.362;-1.518;2023-07-28T05:36:52;2.92;;;1.52;;
22019;SDS011;51298;53.362;-1.518;2023-07-28T05:39:36;3.53;;;1.70;;
22019;SDS011;51298;53.362;-1.518;2023-07-28T05:42:20;3.17;;;1.88;;
22019;SDS011;51298;53.362;-1.518;2023-07-28T05:45:06;4.78;;;2.28;;
22019;SDS011;51298;53.362;-1.518;2023-07-28T05:47:52;4.35;;;1.90;;
22019;SDS011;51298;53.362;-1.518;2023-07-28T05:50:37;4.00;;;1.90;;
22019;SDS011;51298;53.362;-1.518;2023-07-28T05:53:23;3.80;;;1.80;;
22019;SDS011;51298;53.362;-1.518;2023-07-28T05:56:11;3.05;;;1.42;;
22019;SDS011;51298;53.362;-1.518;2023-07-28T05:58:55;2.03;;;1.30;;
22019;SDS011;51298;53.362;-1.518;2023-07-28T06:01:41;2.67;;;1.52;;
22019;SDS011;51298;53.362;-1.518;2023-07-28T06:04:44;3.13;;;1.75;;
22019;SDS011;51298;53.362;-1.518;2023-07-28T06:07:29;3.08;;;1.80;;
22019;SDS011;51298;53.362;-1.518;2023-07-28T06:10:14;3.65;;;1.92;;
22019;SDS011;51298;53.362;-1.518;2023-07-28T06:12:59;3.35;;;1.58;;
22019;SDS011;51298;53.362;-1.518;2023-07-28T06:15:47;2.78;;;1.55;;
22019;SDS011;51298;53.362;-1.518;2023-07-28T06:18:31;3.08;;;1.70;;
22019;SDS011;51298;53.362;-1.518;2023-07-28T06:21:30;3.03;;;1.40;;
22019;SDS011;51298;53.362;-1.518;2023-07-28T06:24:14;2.35;;;1.40;;
22019;SDS011;51298;53.362;-1.518;2023-07-28T06:26:59;2.80;;;1.45;;
22019;SDS011;51298;53.362;-1.518;2023-07-28T06:29:47;3.03;;;1.42;;
22019;SDS011;51298;53.362;-1.518;2023-07-28T06:32:31;2.88;;;1.65;;
22019;SDS011;51298;53.362;-1.518;2023-07-28T06:35:15;1.70;;;1.13;;
22019;SDS011;51298;53.362;-1.518;2023-07-28T06:38:00;2.25;;;1.27;;
22019;SDS011;51298;53.362;-1.518;2023-07-28T06:40:45;2.17;;;1.23;;
22019;SDS011;51298;53.362;-1.518;2023-07-28T06:43:29;6.20;;;1.58;;
22019;SDS011;51298;53.362;-1.518;2023-07-28T06:46:14;2.70;;;1.38;;
22019;SDS011;51298;53.362;-1.518;2023-07-28T06:48:59;3.40;;;1.33;;
22019;SDS011;51298;53.362;-1.518;2023-07-28T06:51:46;4.50;;;1.70;;
22019;SDS011;51298;53.362;-1.518;2023-07-28T06:54:31;3.08;;;1.63;;
22019;SDS011;51298;53.362;-1.518;2023-07-28T06:57:15;2.70;;;1.50;;
22019;SDS011;51298;53.362;-1.518;2023-07-28T07:00:00;4.53;;;1.60;;
22019;SDS011;51298;53.362;-1.518;2023-07-28T07:02:44;6.45;;;1.20;;
22019;SDS011;51298;53.362;-1.518;2023-07-28T07:05:28;3.60;;;1.58;;
22019;SDS011;51298;53.362;-1.518;2023-07-28T07:08:16;2.25;;;1.52;;
22019;SDS011;51298;53.362;-1.518;2023-07-28T07:11:00;2.00;;;1.30;;
22019;SDS011;51298;53.362;-1.518;2023-07-28T07:13:44;5.45;;;1.73;;
22019;SDS011;51298;53.362;-1.518;2023-07-28T07:16:29;2.78;;;1.15;;
22019;SDS011;51298;53.362;-1.518;2023-07-28T07:19:16;2.47;;;1.10;;
22019;SDS011;51298;53.362;-1.518;2023-07-28T07:22:00;1.98;;;1.20;;
22019;SDS011;51298;53.362;-1.518;2023-07-28T07:24:45;3.72;;;1.65;;
22019;SDS011;51298;53.362;-1.518;2023-07-28T07:27:30;2.90;;;1.48;;
22019;SDS011;51298;53.362;-1.518;2023-07-28T07:30:14;2.88;;;1.48;;
22019;SDS011;51298;53.362;-1.518;2023-07-28T07:32:58;2.78;;;1.25;;
22019;SDS011;51298;53.362;-1.518;2023-07-28T07:35:46;2.33;;;1.30;;
22019;SDS011;51298;53.362;-1.518;2023-07-28T07:38:30;1.63;;;1.00;;
22019;SDS011;51298;53.362;-1.518;2023-07-28T07:41:15;1.42;;;0.93;;
22019;SDS011;51298;53.362;-1.518;2023-07-28T07:44:03;3.60;;;1.30;;
22019;SDS011;51298;53.362;-1.518;2023-07-28T07:46:47;3.05;;;1.23;;
22019;SDS011;51298;53.362;-1.518;2023-07-28T07:49:31;2.78;;;1.40;;
22019;SDS011;51298;53.362;-1.518;2023-07-28T07:52:16;2.35;;;1.17;;
22019;SDS011;51298;53.362;-1.518;2023-07-28T07:55:00;5.72;;;1.35;;
22019;SDS011;51298;53.362;-1.518;2023-07-28T07:57:44;2.47;;;1.15;;
22019;SDS011;51298;53.362;-1.518;2023-07-28T08:00:29;2.28;;;1.20;;
22019;SDS011;51298;53.362;-1.518;2023-07-28T08:03:16;2.40;;;1.27;;
22019;SDS011;51298;53.362;-1.518;2023-07-28T08:06:00;3.55;;;1.30;;
22019;SDS011;51298;53.362;-1.518;2023-07-28T08:08:45;2.78;;;1.10;;
22019;SDS011;51298;53.362;-1.518;2023-07-28T08:11:29;1.90;;;1.20;;
22019;SDS011;51298;53.362;-1.518;2023-07-28T08:14:16;2.08;;;1.20;;
22019;SDS011;51298;53.362;-1.518;2023-07-28T08:17:01;2.00;;;0.90;;
22019;SDS011;51298;53.362;-1.518;2023-07-28T08:19:45;1.52;;;1.10;;
22019;SDS011;51298;53.362;-1.518;2023-07-28T08:22:29;1.55;;;1.00;;
22019;SDS011;51298;53.362;-1.518;2023-07-28T08:25:16;1.67;;;1.05;;
22019;SDS011;51298;53.362;-1.518;2023-07-28T08:28:01;1.38;;;0.80;;
22019;SDS011;51298;53.362;-1.518;2023-07-28T08:30:52;0.93;;;0.77;;
22019;SDS011;51298;53.362;-1.518;2023-07-28T08:33:39;1.50;;;0.73;;
22019;SDS011;51298;53.362;-1.518;2023-07-28T08:36:23;1.30;;;0.77;;
22019;SDS011;51298;53.362;-1.518;2023-07-28T08:39:07;1.80;;;1.02;;
22019;SDS011;51298;53.362;-1.518;2023-07-28T08:41:57;1.23;;;0.70;;
22019;SDS011;51298;53.362;-1.518;2023-07-28T08:44:43;1.65;;;0.73;;
22019;SDS011;51298;53.362;-1.518;2023-07-28T08:47:31;2.13;;;0.73;;
22019;SDS011;51298;53.362;-1.518;2023-07-28T08:50:16;1.80;;;0.90;;
22019;SDS011;51298;53.362;-1.518;2023-07-28T08:53:04;8.20;;;1.40;;
22019;SDS011;51298;53.362;-1.518;2023-07-28T08:55:49;1.42;;;0.82;;
22019;SDS011;51298;53.362;-1.518;2023-07-28T08:58:33;3.10;;;1.08;;
22019;SDS011;51298;53.362;-1.518;2023-07-28T09:01:19;1.40;;;0.90;;
22019;SDS011;51298;53.362;-1.518;2023-07-28T09:04:10;1.67;;;1.00;;
22019;SDS011;51298;53.362;-1.518;2023-07-28T09:06:54;3.78;;;0.93;;
22019;SDS011;51298;53.362;-1.518;2023-07-28T09:09:39;1.20;;;0.70;;
22019;SDS011;51298;53.362;-1.518;2023-07-28T09:12:31;1.40;;;0.90;;
22019;SDS011;51298;53.362;-1.518;2023-07-28T09:15:15;1.35;;;0.90;;
22019;SDS011;51298;53.362;-1.518;2023-07-28T09:18:00;2.40;;;0.90;;
22019;SDS011;51298;53.362;-1.518;2023-07-28T09:20:44;1.30;;;0.80;;
22019;SDS011;51298;53.362;-1.518;2023-07-28T09:23:29;0.95;;;0.60;;
22019;SDS011;51298;53.362;-1.518;2023-07-28T09:26:14;1.95;;;0.75;;
22019;SDS011;51298;53.362;-1.518;2023-07-28T09:28:59;0.70;;;0.60;;
22019;SDS011;51298;53.362;-1.518;2023-07-28T09:31:50;1.40;;;0.70;;
22019;SDS011;51298;53.362;-1.518;2023-07-28T09:34:34;0.88;;;0.50;;
22019;SDS011;51298;53.362;-1.518;2023-07-28T09:37:19;0.88;;;0.50;;
22019;SDS011;51298;53.362;-1.518;2023-07-28T09:40:04;1.27;;;0.70;;
22019;SDS011;51298;53.362;-1.518;2023-07-28T09:43:00;1.42;;;0.70;;
22019;SDS011;51298;53.362;-1.518;2023-07-28T09:45:45;1.77;;;0.68;;
22019;SDS011;51298;53.362;-1.518;2023-07-28T09:48:32;0.80;;;0.70;;
22019;SDS011;51298;53.362;-1.518;2023-07-28T09:51:21;4.10;;;0.93;;
22019;SDS011;51298;53.362;-1.518;2023-07-28T09:54:12;6.90;;;0.77;;
22019;SDS011;51298;53.362;-1.518;2023-07-28T09:57:11;0.90;;;0.70;;
22019;SDS011;51298;53.362;-1.518;2023-07-28T09:59:58;2.58;;;0.63;;
22019;SDS011;51298;53.362;-1.518;2023-07-28T10:02:56;1.25;;;0.70;;
22019;SDS011;51298;53.362;-1.518;2023-07-28T10:05:45;2.75;;;0.82;;
22019;SDS011;51298;53.362;-1.518;2023-07-28T10:08:31;1.65;;;0.82;;
22019;SDS011;51298;53.362;-1.518;2023-07-28T10:14:39;2.03;;;0.60;;
22019;SDS011;51298;53.362;-1.518;2023-07-28T10:17:24;1.25;;;0.70;;
22019;SDS011;51298;53.362;-1.518;2023-07-28T10:20:37;1.00;;;0.63;;
22019;SDS011;51298;53.362;-1.518;2023-07-28T10:23:25;1.05;;;0.70;;
22019;SDS011;51298;53.362;-1.518;2023-07-28T10:26:09;0.95;;;0.73;;
22019;SDS011;51298;53.362;-1.518;2023-07-28T10:28:54;1.13;;;0.70;;
22019;SDS011;51298;53.362;-1.518;2023-07-28T10:31:54;1.55;;;0.70;;
22019;SDS011;51298;53.362;-1.518;2023-07-28T10:34:42;0.77;;;0.50;;
22019;SDS011;51298;53.362;-1.518;2023-07-28T10:41:17;4.20;;;0.70;;
22019;SDS011;51298;53.362;-1.518;2023-07-28T10:44:02;0.70;;;0.50;;
22019;SDS011;51298;53.362;-1.518;2023-07-28T10:46:47;2.17;;;0.60;;
22019;SDS011;51298;53.362;-1.518;2023-07-28T10:49:31;1.08;;;0.70;;
22019;SDS011;51298;53.362;-1.518;2023-07-28T10:52:16;0.68;;;0.50;;
22019;SDS011;51298;53.362;-1.518;2023-07-28T10:55:00;1.25;;;0.32;;
22019;SDS011;51298;53.362;-1.518;2023-07-28T10:57:45;1.85;;;0.50;;
22019;SDS011;51298;53.362;-1.518;2023-07-28T11:00:30;1.17;;;0.55;;
22019;SDS011;51298;53.362;-1.518;2023-07-28T11:03:15;0.85;;;0.57;;
22019;SDS011;51298;53.362;-1.518;2023-07-28T11:06:00;0.98;;;0.60;;
22019;SDS011;51298;53.362;-1.518;2023-07-28T11:08:44;1.58;;;0.70;;
22019;SDS011;51298;53.362;-1.518;2023-07-28T11:11:29;1.40;;;0.70;;
22019;SDS011;51298;53.362;-1.518;2023-07-28T11:14:14;1.20;;;0.70;;
22019;SDS011;51298;53.362;-1.518;2023-07-28T11:17:01;1.27;;;0.73;;
22019;SDS011;51298;53.362;-1.518;2023-07-28T11:19:46;1.02;;;0.60;;
22019;SDS011;51298;53.362;-1.518;2023-07-28T11:22:30;1.88;;;0.88;;
22019;SDS011;51298;53.362;-1.518;2023-07-28T11:25:15;4.03;;;0.98;;
22019;SDS011;51298;53.362;-1.518;2023-07-28T11:28:02;2.05;;;0.90;;
22019;SDS011;51298;53.362;-1.518;2023-07-28T11:30:50;1.55;;;0.80;;
22019;SDS011;51298;53.362;-1.518;2023-07-28T11:33:35;1.33;;;0.70;;
22019;SDS011;51298;53.362;-1.518;2023-07-28T11:36:26;2.00;;;1.10;;
22019;SDS011;51298;53.362;-1.518;2023-07-28T11:39:12;1.67;;;1.08;;
22019;SDS011;51298;53.362;-1.518;2023-07-28T11:41:56;1.70;;;1.00;;
22019;SDS011;51298;53.362;-1.518;2023-07-28T11:44:41;3.22;;;1.20;;
22019;SDS011;51298;53.362;-1.518;2023-07-28T11:47:31;3.33;;;0.90;;
22019;SDS011;51298;53.362;-1.518;2023-07-28T11:50:21;1.60;;;0.80;;
22019;SDS011;51298;53.362;-1.518;2023-07-28T11:53:07;1.27;;;0.60;;
22019;SDS011;51298;53.362;-1.518;2023-07-28T11:55:52;1.48;;;0.73;;
22019;SDS011;51298;53.362;-1.518;2023-07-28T11:58:39;1.60;;;0.80;;
22019;SDS011;51298;53.362;-1.518;2023-07-28T12:01:34;1.58;;;0.65;;
22019;SDS011;51298;53.362;-1.518;2023-07-28T12:04:19;3.10;;;1.20;;
22019;SDS011;51298;53.362;-1.518;2023-07-28T12:09:50;1.63;;;1.00;;
22019;SDS011;51298;53.362;-1.518;2023-07-28T12:15:29;1.73;;;0.93;;
22019;SDS011;51298;53.362;-1.518;2023-07-28T12:18:15;1.63;;;0.80;;
22019;SDS011;51298;53.362;-1.518;2023-07-28T12:21:00;1.05;;;0.70;;
22019;SDS011;51298;53.362;-1.518;2023-07-28T12:23:46;1.50;;;1.00;;
22019;SDS011;51298;53.362;-1.518;2023-07-28T12:26:30;1.67;;;0.93;;
22019;SDS011;51298;53.362;-1.518;2023-07-28T12:29:14;1.95;;;1.10;;
22019;SDS011;51298;53.362;-1.518;2023-07-28T12:32:00;2.17;;;1.25;;
22019;SDS011;51298;53.362;-1.518;2023-07-28T12:34:45;1.60;;;1.00;;
22019;SDS011;51298;53.362;-1.518;2023-07-28T12:37:29;3.72;;;1.00;;
22019;SDS011;51298;53.362;-1.518;2023-07-28T12:40:17;1.45;;;0.98;;
22019;SDS011;51298;53.362;-1.518;2023-07-28T12:43:04;4.50;;;1.10;;
22019;SDS011;51298;53.362;-1.518;2023-07-28T12:45:48;1.92;;;0.88;;
22019;SDS011;51298;53.362;-1.518;2023-07-28T12:48:33;1.80;;;1.23;;
22019;SDS011;51298;53.362;-1.518;2023-07-28T12:51:17;1.80;;;0.80;;
22019;SDS011;51298;53.362;-1.518;2023-07-28T12:54:02;9.02;;;0.98;;
22019;SDS011;51298;53.362;-1.518;2023-07-28T12:56:46;1.00;;;0.60;;
22019;SDS011;51298;53.362;-1.518;2023-07-28T12:59:30;2.60;;;0.90;;
22019;SDS011;51298;53.362;-1.518;2023-07-28T13:02:15;1.58;;;0.98;;
22019;SDS011;51298;53.362;-1.518;2023-07-28T13:04:59;1.55;;;0.93;;
22019;SDS011;51298;53.362;-1.518;2023-07-28T13:07:46;6.65;;;1.20;;
22019;SDS011;51298;53.362;-1.518;2023-07-28T13:10:31;2.50;;;1.05;;
22019;SDS011;51298;53.362;-1.518;2023-07-28T13:13:15;4.57;;;1.10;;
22019;SDS011;51298;53.362;-1.518;2023-07-28T13:16:00;1.42;;;0.93;;
22019;SDS011;51298;53.362;-1.518;2023-07-28T13:18:44;1.50;;;0.80;;
22019;SDS011;51298;53.362;-1.518;2023-07-28T13:21:29;2.65;;;0.90;;
22019;SDS011;51298;53.362;-1.518;2023-07-28T13:24:16;1.15;;;0.75;;
22019;SDS011;51298;53.362;-1.518;2023-07-28T13:27:01;1.98;;;0.85;;
22019;SDS011;51298;53.362;-1.518;2023-07-28T13:29:45;1.27;;;0.80;;
22019;SDS011;51298;53.362;-1.518;2023-07-28T13:32:32;1.15;;;0.75;;
22019;SDS011;51298;53.362;-1.518;2023-07-28T13:35:16;4.88;;;0.77;;
22019;SDS011;51298;53.362;-1.518;2023-07-28T13:38:00;0.80;;;0.50;;
22019;SDS011;51298;53.362;-1.518;2023-07-28T13:40:44;0.90;;;0.70;;
22019;SDS011;51298;53.362;-1.518;2023-07-28T13:43:29;2.05;;;0.60;;
22019;SDS011;51298;53.362;-1.518;2023-07-28T13:46:16;0.82;;;0.57;;
22019;SDS011;51298;53.362;-1.518;2023-07-28T13:49:00;0.73;;;0.60;;
22019;SDS011;51298;53.362;-1.518;2023-07-28T13:51:45;1.83;;;0.70;;
22019;SDS011;51298;53.362;-1.518;2023-07-28T13:54:29;2.13;;;0.75;;
22019;SDS011;51298;53.362;-1.518;2023-07-28T13:57:14;0.95;;;0.60;;
22019;SDS011;51298;53.362;-1.518;2023-07-28T14:00:00;1.08;;;0.68;;
22019;SDS011;51298;53.362;-1.518;2023-07-28T14:02:45;0.75;;;0.45;;
22019;SDS011;51298;53.362;-1.518;2023-07-28T14:05:29;1.65;;;0.85;;
22019;SDS011;51298;53.362;-1.518;2023-07-28T14:08:16;1.48;;;0.70;;
22019;SDS011;51298;53.362;-1.518;2023-07-28T14:11:01;0.73;;;0.60;;
22019;SDS011;51298;53.362;-1.518;2023-07-28T14:13:45;1.98;;;0.70;;
22019;SDS011;51298;53.362;-1.518;2023-07-28T14:16:30;2.45;;;0.77;;
22019;SDS011;51298;53.362;-1.518;2023-07-28T14:19:14;1.38;;;0.75;;
22019;SDS011;51298;53.362;-1.518;2023-07-28T14:21:59;1.40;;;0.80;;
22019;SDS011;51298;53.362;-1.518;2023-07-28T14:24:43;1.05;;;0.77;;
22019;SDS011;51298;53.362;-1.518;2023-07-28T14:27:30;1.38;;;0.70;;
22019;SDS011;51298;53.362;-1.518;2023-07-28T14:30:14;1.25;;;0.85;;
22019;SDS011;51298;53.362;-1.518;2023-07-28T14:32:59;1.65;;;0.65;;
22019;SDS011;51298;53.362;-1.518;2023-07-28T14:35:45;1.10;;;0.60;;
22019;SDS011;51298;53.362;-1.518;2023-07-28T14:38:31;1.10;;;0.65;;
22019;SDS011;51298;53.362;-1.518;2023-07-28T14:41:15;2.20;;;0.80;;
22019;SDS011;51298;53.362;-1.518;2023-07-28T14:43:59;1.35;;;0.60;;
22019;SDS011;51298;53.362;-1.518;2023-07-28T14:46:46;1.17;;;0.70;;
22019;SDS011;51298;53.362;-1.518;2023-07-28T14:49:31;0.95;;;0.70;;
22019;SDS011;51298;53.362;-1.518;2023-07-28T14:52:15;3.92;;;0.80;;
22019;SDS011;51298;53.362;-1.518;2023-07-28T14:55:00;0.90;;;0.60;;
22019;SDS011;51298;53.362;-1.518;2023-07-28T14:57:44;4.05;;;1.13;;
22019;SDS011;51298;53.362;-1.518;2023-07-28T15:00:28;7.53;;;0.70;;
22019;SDS011;51298;53.362;-1.518;2023-07-28T15:03:16;1.00;;;0.68;;
22019;SDS011;51298;53.362;-1.518;2023-07-28T15:06:01;1.30;;;0.73;;
22019;SDS011;51298;53.362;-1.518;2023-07-28T15:08:46;0.85;;;0.52;;
22019;SDS011;51298;53.362;-1.518;2023-07-28T15:11:32;0.85;;;0.70;;
22019;SDS011;51298;53.362;-1.518;2023-07-28T15:14:16;0.70;;;0.60;;
22019;SDS011;51298;53.362;-1.518;2023-07-28T15:17:01;2.80;;;0.70;;
22019;SDS011;51298;53.362;-1.518;2023-07-28T15:19:45;1.17;;;0.68;;
22019;SDS011;51298;53.362;-1.518;2023-07-28T15:22:30;1.48;;;0.85;;
22019;SDS011;51298;53.362;-1.518;2023-07-28T15:25:16;1.30;;;0.63;;
22019;SDS011;51298;53.362;-1.518;2023-07-28T15:28:01;1.60;;;0.70;;
22019;SDS011;51298;53.362;-1.518;2023-07-28T15:30:45;1.42;;;0.90;;
22019;SDS011;51298;53.362;-1.518;2023-07-28T15:33:32;0.75;;;0.63;;
22019;SDS011;51298;53.362;-1.518;2023-07-28T15:36:17;1.65;;;0.60;;
22019;SDS011;51298;53.362;-1.518;2023-07-28T15:39:01;1.20;;;0.70;;
22019;SDS011;51298;53.362;-1.518;2023-07-28T15:41:45;1.67;;;0.75;;
22019;SDS011;51298;53.362;-1.518;2023-07-28T15:44:29;2.13;;;0.80;;
22019;SDS011;51298;53.362;-1.518;2023-07-28T15:47:16;1.00;;;0.52;;
22019;SDS011;51298;53.362;-1.518;2023-07-28T15:50:01;1.30;;;0.50;;
22019;SDS011;51298;53.362;-1.518;2023-07-28T15:52:48;2.10;;;0.82;;
22019;SDS011;51298;53.362;-1.518;2023-07-28T15:55:34;1.23;;;0.60;;
22019;SDS011;51298;53.362;-1.518;2023-07-28T15:58:19;0.73;;;0.55;;
22019;SDS011;51298;53.362;-1.518;2023-07-28T16:01:18;0.90;;;0.60;;
22019;SDS011;51298;53.362;-1.518;2023-07-28T16:04:10;0.85;;;0.60;;
22019;SDS011;51298;53.362;-1.518;2023-07-28T16:07:26;1.30;;;0.70;;
22019;SDS011;51298;53.362;-1.518;2023-07-28T16:10:46;1.65;;;0.60;;
22019;SDS011;51298;53.362;-1.518;2023-07-28T16:13:45;9.98;;;0.80;;
22019;SDS011;51298;53.362;-1.518;2023-07-28T16:16:36;0.80;;;0.60;;
22019;SDS011;51298;53.362;-1.518;2023-07-28T16:19:22;1.40;;;0.60;;
22019;SDS011;51298;53.362;-1.518;2023-07-28T16:22:08;1.67;;;0.82;;
22019;SDS011;51298;53.362;-1.518;2023-07-28T16:25:07;6.18;;;0.80;;
22019;SDS011;51298;53.362;-1.518;2023-07-28T16:27:52;2.30;;;0.80;;
22019;SDS011;51298;53.362;-1.518;2023-07-28T16:30:42;0.98;;;0.45;;
22019;SDS011;51298;53.362;-1.518;2023-07-28T16:33:35;0.50;;;0.50;;
22019;SDS011;51298;53.362;-1.518;2023-07-28T16:36:24;1.30;;;0.90;;
22019;SDS011;51298;53.362;-1.518;2023-07-28T16:39:14;0.73;;;0.50;;
22019;SDS011;51298;53.362;-1.518;2023-07-28T16:45:56;1.05;;;0.50;;